Hauptseite
METAR-TAF:

METAR-TAF

Flughäfen :

Warschau, Polen

Chopin-Flughafen Warschau

Breite: 52-10N, Länge: 020-58E, Höhe: 106 m

Beobachtung

Neuester Wetterbericht von vor 19 Minuten, um 05:00 UTC
Wind 8 kt aus Nord/Nordwest
Temperatur 2°C
Luftfeuchtigkeit 80%
Luftdruck 1022 hPa
Sichtweite 10 km oder mehr
Aufgelockert bewölkt in der Höhe von 3300 ft
Durchbrochene Bewölkung in der Höhe von 4000 ft

METAR: EPWA 260500Z 34008KT 9999 SCT033 BKN040 02/M01 Q1022 NOSIG

Zeit: 07:19 (05:19 UTC)

Prognose

Neuester Wetterbericht von vor 5 Stunden und 49 Minuten, um 23:30 UTC
Gültige Prognose vom 26 um 00 UTC bis 26 um 24 UTC
Wind 10 kt aus Nord/Nordwest
Sichtweite 10 km oder mehr
Durchbrochene Bewölkung in der Höhe von 3000 ft
Übergehend zu
vom 26 um 15 UTC bis 26 um 18 UTC
Wind 10 kt aus West

TAF: EPWA 252330Z 2600/2624 34010KT 9999 BKN030 BECMG 2615/2618 27010KT

Wetterbeobachtungen und Prognosen von mehr als 4000 Flughäfen (METAR und TAF Bericht).

Die verfügbaren Stationen werden durch gelbe und rote Markierungen auf der Karte dargestellt.

Führen Sie die Maus auf sie, um den Namen der Station zu sehen.

Darauf klicken, um die Beobachtung von Wetterbeobachtungen und Prognosen zu sehen.

Um die Karte zu ändern : klicken Sie auf den grünen Tasten mit einem schwarzen Kreuz Zum Vergrößern, auf den grünen Button mit einem Gedankenstrich zu verkleinern, oder auf die grünen Pfeile für benachbarte Karten.


METAR-TAF: